METAR AND TAF INFORMATION
METAR FOR YSSY
ADDS - METARS form results

(2308 UTC 22 May 2018)
Data provider http://aviationweather.gov/adds/metars/
 
METAR text: YSSY 222300Z 24005KT 9999 FEW035 17/09 Q1025
Conditions at: YSSY (SYDNEY INTL AIRP, AU) observed 2300 UTC 22 May 2018
Temperature: 17.0°C (63°F)
Dewpoint: 9.0°C (48°F) [RH = 59%]
Pressure (altimeter): 30.27 inches Hg (1025.0 mb)
Winds: from the WSW (240 degrees) at 6 MPH (5 knots; 2.6 m/s)
Visibility: 6 or more miles (10+ km)
Ceiling: at least 12,000 feet AGL
Clouds: few clouds at 3500 feet AGL
Weather: no significant weather observed at this time

METAR text: YSSY 222230Z 31003KT 9999 FEW040 17/09 Q1025 NOSIG
Conditions at: YSSY (SYDNEY INTL AIRP, AU) observed 2230 UTC 22 May 2018
Temperature: 17.0°C (63°F)
Dewpoint: 9.0°C (48°F) [RH = 59%]
Pressure (altimeter): 30.27 inches Hg (1025.0 mb)
Winds: from the NW (310 degrees) at 3 MPH (3 knots; 1.6 m/s)
Visibility: 6 or more miles (10+ km)
Ceiling: at least 12,000 feet AGL
Clouds: few clouds at 4000 feet AGL
Weather: no significant weather observed at this time

Forecast for: YSSY (SYDNEY INTL AIRP, AU)
Text: TAF YSSY 221640Z 2218/2324 27005KT 9999 SCT030
Forecast period: 1800 to 2200 UTC 22 May 2018
Forecast type: FROM: standard forecast or significant change
Winds: from the W (270 degrees) at 6 MPH (5 knots; 2.6 m/s)
Visibility: 6 or more miles (10+ km)
Clouds: scattered clouds at 3000 feet AGL
Weather: no significant weather forecast for this period
Forecast for: YSSY (SYDNEY INTL AIRP, AU)
Text: TAF YSSY 221640Z 2218/2324 27005KT 9999 SCT030
Forecast period: 1800 to 2200 UTC 22 May 2018
Forecast type: FROM: standard forecast or significant change
Winds: from the W (270 degrees) at 6 MPH (5 knots; 2.6 m/s)
Visibility: 6 or more miles (10+ km)
Clouds: scattered clouds at 3000 feet AGL
Weather: no significant weather forecast for this period
Forecast for: YSSY (SYDNEY INTL AIRP, AU)
Text: TAF YSSY 221640Z 2218/2324 27005KT 9999 SCT030
Forecast period: 2200 UTC 22 May 2018 to 0200 UTC 23 May 2018
Forecast type: FROM: standard forecast or significant change
Winds: from the SW (220 degrees) at 12 MPH (10 knots; 5.2 m/s)
Visibility: 6 or more miles (10+ km)
Clouds: few clouds at 3500 feet AGL
Weather: no significant weather forecast for this period
Forecast for: YSSY (SYDNEY INTL AIRP, AU)
Text: TAF YSSY 221640Z 2218/2324 27005KT 9999 SCT030
Forecast period: 2200 UTC 22 May 2018 to 0200 UTC 23 May 2018
Forecast type: FROM: standard forecast or significant change
Winds: from the SW (220 degrees) at 12 MPH (10 knots; 5.2 m/s)
Visibility: 6 or more miles (10+ km)
Clouds: few clouds at 3500 feet AGL
Weather: no significant weather forecast for this period
Forecast for: YSSY (SYDNEY INTL AIRP, AU)
Text: TAF YSSY 221640Z 2218/2324 27005KT 9999 SCT030
Forecast period: 0200 to 0700 UTC 23 May 2018
Forecast type: FROM: standard forecast or significant change
Winds: from the ESE (120 degrees) at 9 MPH (8 knots; 4.2 m/s)
Visibility: 6 or more miles (10+ km)
Clouds: not forecast
Weather: NSW  (no significant weather)
Forecast for: YSSY (SYDNEY INTL AIRP, AU)
Text: TAF YSSY 221640Z 2218/2324 27005KT 9999 SCT030
Forecast period: 0200 to 0700 UTC 23 May 2018
Forecast type: FROM: standard forecast or significant change
Winds: from the ESE (120 degrees) at 9 MPH (8 knots; 4.2 m/s)
Visibility: 6 or more miles (10+ km)
Clouds: not forecast
Weather: NSW  (no significant weather)
Forecast for: YSSY (SYDNEY INTL AIRP, AU)
Text: TAF YSSY 221640Z 2218/2324 27005KT 9999 SCT030
Forecast period: 0700 to 1100 UTC 23 May 2018
Forecast type: FROM: standard forecast or significant change
Winds: from the ENE (60 degrees) at 9 MPH (8 knots; 4.2 m/s)
Visibility: 6 or more miles (10+ km)
Clouds: not forecast
Weather: NSW  (no significant weather)
Forecast for: YSSY (SYDNEY INTL AIRP, AU)
Text: TAF YSSY 221640Z 2218/2324 27005KT 9999 SCT030
Forecast period: 0700 to 1100 UTC 23 May 2018
Forecast type: FROM: standard forecast or significant change
Winds: from the ENE (60 degrees) at 9 MPH (8 knots; 4.2 m/s)
Visibility: 6 or more miles (10+ km)
Clouds: not forecast
Weather: NSW  (no significant weather)
Forecast for: YSSY (SYDNEY INTL AIRP, AU)
Text: TAF YSSY 221640Z 2218/2324 27005KT 9999 SCT030
Forecast period: 1100 to 2200 UTC 23 May 2018
Forecast type: FROM: standard forecast or significant change
Winds: from the WNW (290 degrees) at 9 MPH (8 knots; 4.2 m/s)
Visibility: 6 or more miles (10+ km)
Clouds: not forecast
Weather: NSW  (no significant weather)
Forecast for: YSSY (SYDNEY INTL AIRP, AU)
Text: TAF YSSY 221640Z 2218/2324 27005KT 9999 SCT030
Forecast period: 1100 to 2200 UTC 23 May 2018
Forecast type: FROM: standard forecast or significant change
Winds: from the WNW (290 degrees) at 9 MPH (8 knots; 4.2 m/s)
Visibility: 6 or more miles (10+ km)
Clouds: not forecast
Weather: NSW  (no significant weather)
Forecast for: YSSY (SYDNEY INTL AIRP, AU)
Text: TAF YSSY 221640Z 2218/2324 27005KT 9999 SCT030
Forecast period: 2200 UTC 23 May 2018 to 0000 UTC 24 May 2018
Forecast type: FROM: standard forecast or significant change
Winds: from the SW (220 degrees) at 12 MPH (10 knots; 5.2 m/s)
Visibility: 6 or more miles (10+ km)
Clouds: scattered clouds at 2000 feet AGL
Weather: no significant weather forecast for this period
Forecast for: YSSY (SYDNEY INTL AIRP, AU)
Text: TAF YSSY 221640Z 2218/2324 27005KT 9999 SCT030
Forecast period: 2200 UTC 23 May 2018 to 0000 UTC 24 May 2018
Forecast type: FROM: standard forecast or significant change
Winds: from the SW (220 degrees) at 12 MPH (10 knots; 5.2 m/s)
Visibility: 6 or more miles (10+ km)
Clouds: scattered clouds at 2000 feet AGL
Weather: no significant weather forecast for this period

 AIRPORT MAP

 RUNWAY INFORMATION
Runway 07 Runway length 8300 ft Runway width 148 ft
Runway elevation 16 ft Runway displaced threshold 0 ft Runway heading 74
Runway 25 Runway length 8300 ft Runway width 148 ft
Runway elevation 20 ft Runway displaced threshold 324 ft Runway heading 254
Runway 16L Runway length 7999 ft Runway width 148 ft
Runway elevation 16 ft Runway displaced threshold 758 ft Runway heading 168
Runway 34R Runway length 7999 ft Runway width 148 ft
Runway elevation 13 ft Runway displaced threshold 125 ft Runway heading 348
Runway 16R Runway length 12999 ft Runway width 148 ft
Runway elevation 8 ft Runway displaced threshold 279 ft Runway heading 168
Runway 34L Runway length 12999 ft Runway width 148 ft
Runway elevation 14 ft Runway displaced threshold 0 ft Runway heading 348

 AIRPORT FREQUENCIES
Type APP Name APP Frequency 135.1 MHZ
Type ATIS Name ATIS Frequency 126.25 MHZ
Type CLD Name CLNC DEL Frequency 133.8 MHZ
Type DEP Name DEP Frequency 123 MHZ
Type GND Name GND Frequency 121.7 MHZ
Type OPS Name RAAF AIR O Frequency 1123.5 MHZ
Type TWR Name TWR Frequency 120.5 MHZ

 AIRPORT NEAR NAVIGATION AIDS
Type NDB Name Glenfield Frequency 428 KHZ
Type VOR-DME Name Sydney Frequency 112100 KHZ



Powered by Virtual Airlines Manager [v2.6.2]